createdAt,value
2022-12-20T00:00:46.465Z,101325.56
2022-12-20T00:02:48.435Z,101320.78
2022-12-20T00:04:50.434Z,101315.59
2022-12-20T00:06:53.386Z,101305.88
2022-12-20T00:08:57.667Z,101312.03
2022-12-20T00:11:02.436Z,101312.31
2022-12-20T00:13:05.025Z,101299.13
2022-12-20T00:15:08.309Z,101305.47
2022-12-20T00:17:10.175Z,101297.25
2022-12-20T00:19:12.299Z,101292.94
2022-12-20T00:21:15.489Z,101291.94
2022-12-20T00:23:17.473Z,101289.78
2022-12-20T00:25:20.983Z,101288.16
2022-12-20T00:27:22.968Z,101286.59
2022-12-20T00:29:24.902Z,101285.72
2022-12-20T00:31:29.421Z,101289.13
2022-12-20T00:33:35.264Z,101291.06
2022-12-20T00:35:43.257Z,101292.16
2022-12-20T00:37:45.599Z,101291.16
2022-12-20T00:39:47.649Z,101286.00
2022-12-20T00:41:49.583Z,101295.19
2022-12-20T00:43:52.336Z,101288.91
2022-12-20T00:45:54.265Z,101279.03
2022-12-20T00:47:56.107Z,101277.50
2022-12-20T00:49:58.015Z,101279.41
2022-12-20T00:52:01.935Z,101271.69
2022-12-20T00:54:05.907Z,101265.63
2022-12-20T00:56:08.540Z,101267.41
2022-12-20T00:58:11.239Z,101268.41
2022-12-20T01:00:13.624Z,101266.63
2022-12-20T01:02:15.644Z,101262.16
2022-12-20T01:04:18.032Z,101254.59
2022-12-20T01:06:21.686Z,101263.59
2022-12-20T01:08:25.244Z,101253.72
2022-12-20T01:10:27.747Z,101252.06
2022-12-20T01:12:31.604Z,101256.38
2022-12-20T01:14:33.535Z,101251.31
2022-12-20T01:16:39.682Z,101259.25
2022-12-20T01:18:41.675Z,101242.97
2022-12-20T01:20:43.946Z,101249.66
2022-12-20T01:22:51.759Z,101247.38
2022-12-20T01:24:53.777Z,101236.22
2022-12-20T01:26:56.700Z,101247.44
2022-12-20T01:29:00.578Z,101234.06
2022-12-20T01:31:02.612Z,101236.59
2022-12-20T01:33:04.463Z,101231.41
2022-12-20T01:35:06.612Z,101216.66
2022-12-20T01:37:08.885Z,101221.78
2022-12-20T01:39:16.681Z,101206.38
2022-12-20T01:41:22.949Z,101209.78
2022-12-20T01:43:44.285Z,101210.78
2022-12-20T01:45:47.139Z,101194.72
2022-12-20T01:47:51.148Z,101203.31
2022-12-20T01:49:56.732Z,101193.97
2022-12-20T01:52:15.161Z,101179.81
2022-12-20T01:54:19.075Z,101179.38
2022-12-20T01:56:21.971Z,101180.91
2022-12-20T01:58:24.878Z,101178.50
2022-12-20T02:00:26.989Z,101170.28
2022-12-20T02:02:29.222Z,101166.88
2022-12-20T02:04:31.361Z,101170.94
2022-12-20T02:06:33.316Z,101176.97
2022-12-20T02:08:35.301Z,101167.09
2022-12-20T02:11:01.691Z,101167.09
2022-12-20T02:13:24.422Z,101173.81
2022-12-20T02:15:50.324Z,101163.72
2022-12-20T02:17:56.292Z,101161.72
2022-12-20T02:20:30.452Z,101158.31
2022-12-20T02:22:56.844Z,101149.97
2022-12-20T02:25:19.427Z,101147.69
2022-12-20T02:27:41.430Z,101160.06
2022-12-20T02:30:01.904Z,101147.09
2022-12-20T02:32:10.676Z,101150.97
2022-12-20T02:34:15.185Z,101144.38
2022-12-20T02:36:18.285Z,101140.97
2022-12-20T02:38:33.818Z,101148.03
2022-12-20T02:40:41.590Z,101148.69
2022-12-20T02:42:45.063Z,101153.31
2022-12-20T02:45:17.226Z,101153.75
2022-12-20T02:47:21.832Z,101151.31
2022-12-20T02:49:29.356Z,101145.84
2022-12-20T02:51:33.325Z,101143.31
2022-12-20T02:53:37.012Z,101141.66
2022-12-20T02:55:51.516Z,101138.03
2022-12-20T02:58:07.130Z,101133.09
2022-12-20T03:00:13.465Z,101126.50
2022-12-20T03:02:16.108Z,101145.63
2022-12-20T03:04:22.905Z,101128.25
2022-12-20T03:06:25.558Z,101131.78
2022-12-20T03:08:27.586Z,101126.84
2022-12-20T03:10:29.734Z,101124.09
2022-12-20T03:12:31.589Z,101122.66
2022-12-20T03:14:36.202Z,101114.53
2022-12-20T03:16:38.096Z,101125.00
2022-12-20T03:18:40.089Z,101136.66
2022-12-20T03:20:43.350Z,101138.84
2022-12-20T03:22:45.350Z,101145.56
2022-12-20T03:24:48.222Z,101136.13
2022-12-20T03:26:50.250Z,101132.06
2022-12-20T03:28:52.239Z,101122.16
2022-12-20T03:30:54.209Z,101136.78
2022-12-20T03:32:56.359Z,101131.59
2022-12-20T03:34:58.226Z,101126.88
2022-12-20T03:37:00.166Z,101125.66
2022-12-20T03:39:03.028Z,101122.16
2022-12-20T03:41:04.939Z,101124.75
2022-12-20T03:43:06.909Z,101128.53
2022-12-20T03:45:09.324Z,101110.38
2022-12-20T03:47:11.283Z,101120.69
2022-12-20T03:49:14.243Z,101122.56
2022-12-20T03:51:16.128Z,101122.16
2022-12-20T03:53:18.002Z,101114.44
2022-12-20T03:55:21.891Z,101120.03
2022-12-20T03:57:23.994Z,101126.34
2022-12-20T03:59:25.932Z,101127.53
2022-12-20T04:01:29.803Z,101120.16
2022-12-20T04:03:33.822Z,101123.47
2022-12-20T04:05:35.769Z,101127.53
2022-12-20T04:07:37.936Z,101125.88
2022-12-20T04:09:39.816Z,101115.66
2022-12-20T04:11:41.781Z,101106.75
2022-12-20T04:13:54.204Z,101094.84
2022-12-20T04:16:00.345Z,101093.13
2022-12-20T04:18:02.708Z,101087.38
2022-12-20T04:20:19.301Z,101091.56
2022-12-20T04:22:21.359Z,101087.47
2022-12-20T04:24:23.244Z,101091.56
2022-12-20T04:26:25.251Z,101104.44
2022-12-20T04:28:27.540Z,101105.19
2022-12-20T04:30:29.429Z,101094.84
2022-12-20T04:32:31.347Z,101093.66
2022-12-20T04:34:33.300Z,101109.38
2022-12-20T04:36:35.315Z,101100.13
2022-12-20T04:38:37.307Z,101103.66
2022-12-20T04:40:39.228Z,101104.00
2022-12-20T04:42:41.079Z,101102.34
2022-12-20T04:44:43.081Z,101099.25
2022-12-20T04:46:45.235Z,101099.03
2022-12-20T04:48:56.972Z,101109.84
2022-12-20T04:51:02.503Z,101102.34
2022-12-20T04:53:24.895Z,101103.00
2022-12-20T04:55:26.880Z,101106.63
2022-12-20T04:57:29.743Z,101102.78
2022-12-20T04:59:32.873Z,101101.56
2022-12-20T05:01:35.079Z,101099.59
2022-12-20T05:03:37.938Z,101097.72
2022-12-20T05:05:39.942Z,101094.75
2022-12-20T05:07:43.860Z,101092.75
2022-12-20T05:09:45.696Z,101087.78
2022-12-20T05:11:47.692Z,101080.44
2022-12-20T05:13:49.569Z,101086.38
2022-12-20T05:15:53.578Z,101081.63
2022-12-20T05:17:59.840Z,101081.06
2022-12-20T05:20:01.871Z,101079.63
2022-12-20T05:22:23.420Z,101076.41
2022-12-20T05:24:43.998Z,101069.63
2022-12-20T05:26:46.936Z,101064.75
2022-12-20T05:28:49.834Z,101067.28
2022-12-20T05:30:51.795Z,101063.44
2022-12-20T05:32:53.897Z,101063.00
2022-12-20T05:34:56.793Z,101057.81
2022-12-20T05:36:58.672Z,101055.75
2022-12-20T05:39:04.860Z,101060.34
2022-12-20T05:41:07.439Z,101063.69
2022-12-20T05:43:09.709Z,101066.63
2022-12-20T05:45:11.829Z,101067.09
2022-12-20T05:47:13.734Z,101064.88
2022-12-20T05:49:15.756Z,101072.91
2022-12-20T05:51:17.707Z,101074.22
2022-12-20T05:53:19.776Z,101064.88
2022-12-20T05:55:22.660Z,101071.81
2022-12-20T05:57:24.579Z,101058.94
2022-12-20T05:59:26.545Z,101066.41
2022-12-20T06:01:28.507Z,101066.94
2022-12-20T06:03:31.076Z,101066.25
2022-12-20T06:05:34.553Z,101059.34
2022-12-20T06:07:36.483Z,101056.25
2022-12-20T06:09:38.400Z,101063.97
2022-12-20T06:11:40.398Z,101059.78
2022-12-20T06:13:42.399Z,101058.91
2022-12-20T06:15:44.383Z,101055.91
2022-12-20T06:17:48.264Z,101063.03
2022-12-20T06:19:50.223Z,101070.09
2022-12-20T06:21:53.214Z,101065.34
2022-12-20T06:23:55.491Z,101067.03
2022-12-20T06:25:58.259Z,101071.41
2022-12-20T06:28:00.328Z,101069.22
2022-12-20T06:30:05.789Z,101064.84
2022-12-20T06:32:07.869Z,101057.59
2022-12-20T06:34:10.282Z,101053.59
2022-12-20T06:36:12.269Z,101052.72
2022-12-20T06:38:14.293Z,101050.50
2022-12-20T06:40:16.636Z,101047.88
2022-12-20T06:42:20.745Z,101050.50
2022-12-20T06:44:22.766Z,101054.66
2022-12-20T06:46:24.650Z,101048.72
2022-12-20T06:48:26.610Z,101054.00
2022-12-20T06:50:28.546Z,101047.81
2022-12-20T06:52:30.664Z,101059.25
2022-12-20T06:54:32.643Z,101061.78
2022-12-20T06:56:41.212Z,101065.66
2022-12-20T06:58:43.718Z,101068.94
2022-12-20T07:00:50.736Z,101073.78
2022-12-20T07:02:52.863Z,101071.38
2022-12-20T07:04:55.015Z,101077.84
2022-12-20T07:06:57.519Z,101077.44
2022-12-20T07:08:59.431Z,101087.31
2022-12-20T07:11:08.809Z,101075.97
2022-12-20T07:13:12.005Z,101088.34
2022-12-20T07:15:14.061Z,101075.88
2022-12-20T07:17:16.007Z,101080.28
2022-12-20T07:19:18.111Z,101083.00
2022-12-20T07:21:20.959Z,101076.88
2022-12-20T07:23:22.934Z,101074.09
2022-12-20T07:25:26.021Z,101075.88
2022-12-20T07:27:28.049Z,101070.03
2022-12-20T07:29:30.672Z,101077.50
2022-12-20T07:31:32.757Z,101078.38
2022-12-20T07:33:37.485Z,101082.56
2022-12-20T07:35:39.659Z,101082.56
2022-12-20T07:37:42.301Z,101080.03
2022-12-20T07:39:45.252Z,101082.97
2022-12-20T07:41:47.148Z,101073.59
2022-12-20T07:43:49.119Z,101077.22
2022-12-20T07:45:56.363Z,101074.22
2022-12-20T07:48:03.287Z,101068.84
2022-12-20T07:50:09.735Z,101065.84
2022-12-20T07:52:15.011Z,101076.84
2022-12-20T07:54:22.360Z,101080.47
2022-12-20T07:56:24.546Z,101076.53
2022-12-20T07:58:31.111Z,101081.28
2022-12-20T08:00:34.388Z,101071.88
2022-12-20T08:02:43.018Z,101074.94
2022-12-20T08:04:45.396Z,101075.03
2022-12-20T08:06:48.468Z,101087.16
2022-12-20T08:08:57.845Z,101082.69
2022-12-20T08:11:05.745Z,101085.84
2022-12-20T08:13:08.117Z,101076.06
2022-12-20T08:15:10.533Z,101086.22
2022-12-20T08:17:12.568Z,101078.13
2022-12-20T08:19:14.596Z,101079.09
2022-12-20T08:21:17.595Z,101076.00
2022-12-20T08:23:20.526Z,101072.19
2022-12-20T08:25:22.541Z,101079.22
2022-12-20T08:27:24.489Z,101079.13
2022-12-20T08:29:26.461Z,101080.78
2022-12-20T08:31:28.515Z,101073.56
2022-12-20T08:33:32.842Z,101065.28
2022-12-20T08:35:34.735Z,101067.03
2022-12-20T08:37:37.649Z,101063.81
2022-12-20T08:39:39.611Z,101058.25
2022-12-20T08:41:41.565Z,101064.41
2022-12-20T08:43:44.563Z,101067.16
2022-12-20T08:45:53.497Z,101064.09
2022-12-20T08:47:55.531Z,101060.81
2022-12-20T08:49:57.578Z,101070.66
2022-12-20T08:51:59.545Z,101064.81
2022-12-20T08:54:02.921Z,101069.88
2022-12-20T08:56:11.160Z,101064.50
2022-12-20T08:58:14.010Z,101072.59
2022-12-20T09:00:16.631Z,101068.50
2022-12-20T09:02:18.792Z,101068.97
2022-12-20T09:04:22.119Z,101074.75
2022-12-20T09:06:24.281Z,101059.50
2022-12-20T09:08:26.987Z,101056.59
2022-12-20T09:10:28.924Z,101056.91
2022-12-20T09:12:30.901Z,101056.28
2022-12-20T09:14:35.955Z,101057.16
2022-12-20T09:16:37.914Z,101059.09
2022-12-20T09:18:40.038Z,101055.28
2022-12-20T09:20:45.773Z,101052.63
2022-12-20T09:22:47.733Z,101047.66
2022-12-20T09:24:49.692Z,101060.94
2022-12-20T09:26:52.276Z,101054.38
2022-12-20T09:28:54.922Z,101052.69
2022-12-20T09:31:01.558Z,101045.63
2022-12-20T09:33:10.888Z,101047.69
2022-12-20T09:35:16.558Z,101040.84
2022-12-20T09:37:21.376Z,101038.50
2022-12-20T09:39:23.415Z,101036.69
2022-12-20T09:41:38.947Z,101036.31
2022-12-20T09:43:42.316Z,101037.56
2022-12-20T09:45:47.730Z,101042.81
2022-12-20T09:47:56.555Z,101038.28
2022-12-20T09:49:58.649Z,101054.22
2022-12-20T09:52:32.445Z,101049.34
2022-12-20T09:54:47.902Z,101054.59
2022-12-20T09:57:07.372Z,101055.78
2022-12-20T09:59:15.733Z,101045.72
2022-12-20T10:01:25.324Z,101051.09
2022-12-20T10:03:35.976Z,101047.50
2022-12-20T10:05:56.467Z,101050.53
2022-12-20T10:08:35.158Z,101048.28
2022-12-20T10:11:02.514Z,101057.94
2022-12-20T10:13:20.773Z,101046.56
2022-12-20T10:15:28.208Z,101045.94
2022-12-20T10:17:51.110Z,101046.41
2022-12-20T10:20:09.124Z,101045.84
2022-12-20T10:22:13.660Z,101051.59
2022-12-20T10:24:21.780Z,101059.44
2022-12-20T10:26:24.116Z,101059.88
2022-12-20T10:28:30.824Z,101055.75
2022-12-20T10:30:35.753Z,101050.94
2022-12-20T10:32:37.978Z,101050.69
2022-12-20T10:34:48.628Z,101046.06
2022-12-20T10:37:14.705Z,101038.00
2022-12-20T10:39:16.764Z,101044.13
2022-12-20T10:41:23.427Z,101032.19
2022-12-20T10:43:27.053Z,101033.31
2022-12-20T10:45:37.895Z,101026.94
2022-12-20T10:47:44.974Z,101026.25
2022-12-20T10:49:49.375Z,101028.59
2022-12-20T10:51:57.529Z,101026.75
2022-12-20T10:54:23.241Z,101021.50
2022-12-20T10:56:34.406Z,101012.38
2022-12-20T10:58:39.759Z,101008.84
2022-12-20T11:00:42.763Z,101003.59
2022-12-20T11:03:03.984Z,100996.94
2022-12-20T11:05:12.776Z,100987.09
2022-12-20T11:07:28.585Z,100987.97
2022-12-20T11:09:33.400Z,100986.13
2022-12-20T11:11:35.707Z,100980.78
2022-12-20T11:13:37.783Z,100966.41
2022-12-20T11:15:51.993Z,100969.91
2022-12-20T11:18:13.714Z,100965.50
2022-12-20T11:20:40.036Z,100963.25
2022-12-20T11:22:44.854Z,100957.03
2022-12-20T11:25:05.968Z,100960.44
2022-12-20T11:27:13.442Z,100967.78
2022-12-20T11:29:26.365Z,100963.69
2022-12-20T11:32:08.842Z,100964.13
2022-12-20T11:34:10.776Z,100961.84
2022-12-20T11:36:32.887Z,100966.66
2022-12-20T11:38:59.493Z,100963.34
2022-12-20T11:41:11.415Z,100962.97
2022-12-20T11:43:20.510Z,100959.09
2022-12-20T11:45:26.518Z,100960.16
2022-12-20T11:48:09.996Z,100953.78
2022-12-20T11:50:18.455Z,100945.19
2022-12-20T11:52:37.125Z,100945.19
2022-12-20T11:54:47.981Z,100944.47
2022-12-20T11:56:56.793Z,100944.66
2022-12-20T11:59:18.949Z,100944.75
2022-12-20T12:01:30.275Z,100939.75
2022-12-20T12:03:41.328Z,100938.34
2022-12-20T12:06:01.169Z,100941.56
2022-12-20T12:08:13.530Z,100951.47
2022-12-20T12:10:24.797Z,100953.72
2022-12-20T12:12:58.705Z,100945.91
2022-12-20T12:15:23.986Z,100945.13
2022-12-20T12:17:45.258Z,100939.41
2022-12-20T12:19:51.519Z,100944.00
2022-12-20T12:22:02.303Z,100947.75
2022-12-20T12:24:20.969Z,100938.94
2022-12-20T12:26:30.448Z,100937.81
2022-12-20T12:28:34.706Z,100937.56
2022-12-20T12:30:46.274Z,100939.56
2022-12-20T12:33:01.165Z,100945.38
2022-12-20T12:35:31.925Z,100943.63
2022-12-20T12:37:44.560Z,100945.53
2022-12-20T12:40:02.217Z,100943.44
2022-12-20T12:42:10.251Z,100943.09
2022-12-20T12:44:33.123Z,100939.75
2022-12-20T12:46:37.284Z,100941.00
2022-12-20T12:48:56.255Z,100945.66
2022-12-20T12:50:59.712Z,100933.38
2022-12-20T12:53:22.861Z,100935.72
2022-12-20T12:55:41.296Z,100937.38
2022-12-20T12:57:57.404Z,100936.16
2022-12-20T12:59:59.447Z,100943.44
2022-12-20T13:02:04.541Z,100949.56
2022-12-20T13:04:48.462Z,100944.75
2022-12-20T13:07:22.872Z,100946.75
2022-12-20T13:09:28.063Z,100941.56
2022-12-20T13:11:39.216Z,100941.06
2022-12-20T13:13:44.798Z,100944.22
2022-12-20T13:15:48.420Z,100942.81
2022-12-20T13:18:10.944Z,100942.03
2022-12-20T13:20:18.495Z,100954.47
2022-12-20T13:22:25.600Z,100954.75
2022-12-20T13:24:55.346Z,100942.03
2022-12-20T13:26:58.290Z,100943.59
2022-12-20T13:29:23.547Z,100938.69
2022-12-20T13:31:25.570Z,100946.91
2022-12-20T13:33:48.531Z,100949.72
2022-12-20T13:36:01.260Z,100958.06
2022-12-20T13:38:13.600Z,100951.47
2022-12-20T13:40:57.597Z,100954.00
2022-12-20T13:43:06.612Z,100959.72
2022-12-20T13:45:13.518Z,100965.84
2022-12-20T13:47:18.573Z,100971.34
2022-12-20T13:49:26.450Z,100967.75
2022-12-20T13:51:29.377Z,100961.47
2022-12-20T13:53:31.797Z,100954.47
2022-12-20T13:55:36.524Z,100949.03
2022-12-20T13:57:55.223Z,100959.72
2022-12-20T14:00:06.287Z,100949.34
2022-12-20T14:02:21.088Z,100952.53
2022-12-20T14:04:27.136Z,100942.09
2022-12-20T14:06:29.208Z,100939.94
2022-12-20T14:08:34.814Z,100935.28
2022-12-20T14:10:37.049Z,100932.63
2022-12-20T14:12:54.915Z,100940.97
2022-12-20T14:15:13.653Z,100936.75
2022-12-20T14:17:18.883Z,100940.41
2022-12-20T14:19:20.901Z,100940.59
2022-12-20T14:21:24.641Z,100934.25
2022-12-20T14:23:51.031Z,100935.31
2022-12-20T14:25:59.433Z,100930.84
2022-12-20T14:28:02.046Z,100922.34
2022-12-20T14:30:06.087Z,100918.84
2022-12-20T14:32:19.089Z,100935.06
2022-12-20T14:34:33.133Z,100933.03
2022-12-20T14:36:43.933Z,100933.03
2022-12-20T14:38:48.931Z,100929.84
2022-12-20T14:40:54.128Z,100934.22
2022-12-20T14:42:56.763Z,100940.19
2022-12-20T14:45:14.803Z,100950.00
2022-12-20T14:47:26.843Z,100941.41
2022-12-20T14:49:33.169Z,100935.81
2022-12-20T14:51:35.403Z,100926.84
2022-12-20T14:53:40.469Z,100928.44
2022-12-20T14:55:46.821Z,100923.34
2022-12-20T14:57:55.339Z,100925.09
2022-12-20T15:00:23.249Z,100917.16
2022-12-20T15:02:36.443Z,100913.91
2022-12-20T15:04:39.684Z,100905.31
2022-12-20T15:06:44.886Z,100911.19
2022-12-20T15:08:46.847Z,100910.81
2022-12-20T15:11:11.159Z,100900.66
2022-12-20T15:13:18.797Z,100906.25
2022-12-20T15:15:29.673Z,100902.81
2022-12-20T15:17:32.056Z,100902.16
2022-12-20T15:19:40.378Z,100901.47
2022-12-20T15:21:45.884Z,100892.31
2022-12-20T15:23:51.748Z,100893.09
2022-12-20T15:25:53.990Z,100893.44
2022-12-20T15:27:55.940Z,100887.72
2022-12-20T15:29:59.316Z,100890.78
2022-12-20T15:32:29.994Z,100892.66
2022-12-20T15:34:38.117Z,100893.28
2022-12-20T15:36:40.123Z,100893.06
2022-12-20T15:39:10.680Z,100888.09
2022-12-20T15:41:06.613Z,100882.94
2022-12-20T15:43:13.263Z,100880.78
2022-12-20T15:45:16.352Z,100876.63
2022-12-20T15:47:18.434Z,100877.09
2022-12-20T15:49:23.289Z,100879.75
2022-12-20T15:51:31.775Z,100876.09
2022-12-20T15:53:34.932Z,100878.38
2022-12-20T15:55:40.217Z,100883.63
2022-12-20T15:57:43.332Z,100876.00
2022-12-20T16:00:04.058Z,100877.72
2022-12-20T16:02:25.277Z,100879.09
2022-12-20T16:04:29.194Z,100877.91
2022-12-20T16:06:31.910Z,100874.47
2022-12-20T16:08:33.922Z,100872.63
2022-12-20T16:10:36.667Z,100873.34
2022-12-20T16:12:38.833Z,100870.09
2022-12-20T16:14:40.749Z,100877.03
2022-12-20T16:16:43.111Z,100879.50
2022-12-20T16:18:45.591Z,100874.59
2022-12-20T16:20:48.597Z,100877.28
2022-12-20T16:22:50.675Z,100881.59
2022-12-20T16:24:52.632Z,100878.91
2022-12-20T16:26:54.631Z,100883.03
2022-12-20T16:28:58.586Z,100876.25
2022-12-20T16:31:00.575Z,100873.88
2022-12-20T16:33:03.211Z,100874.09
2022-12-20T16:35:05.519Z,100870.94
2022-12-20T16:37:07.557Z,100879.34
2022-12-20T16:39:13.020Z,100877.09
2022-12-20T16:41:21.600Z,100874.75
2022-12-20T16:43:23.657Z,100876.63
2022-12-20T16:45:29.146Z,100870.44
2022-12-20T16:47:32.119Z,100873.75
2022-12-20T16:49:34.131Z,100873.75
2022-12-20T16:51:42.525Z,100878.53
2022-12-20T16:54:17.540Z,100868.31
2022-12-20T16:56:14.925Z,100881.28
2022-12-20T16:58:17.038Z,100883.16
2022-12-20T17:00:22.979Z,100875.28
2022-12-20T17:02:30.655Z,100864.75
2022-12-20T17:04:32.778Z,100866.28
2022-12-20T17:06:34.805Z,100870.06
2022-12-20T17:10:58.293Z,100868.47
2022-12-20T17:13:00.495Z,100873.16
2022-12-20T17:15:03.314Z,100883.81
2022-12-20T17:17:05.512Z,100884.38
2022-12-20T17:19:14.090Z,100872.63
2022-12-20T17:24:00.899Z,100836.66
2022-12-20T17:26:02.887Z,100820.81
2022-12-20T17:28:05.050Z,100827.84
2022-12-20T17:30:07.771Z,100831.84
2022-12-20T17:32:23.308Z,100845.69
2022-12-20T17:34:28.492Z,100836.81
2022-12-20T17:36:35.961Z,100845.50
2022-12-20T17:38:40.669Z,100850.59
2022-12-20T17:40:44.019Z,100841.25
2022-12-20T17:42:46.247Z,100843.94
2022-12-20T17:44:48.260Z,100847.06
2022-12-20T17:46:50.932Z,100848.06
2022-12-20T17:48:53.744Z,100848.00
2022-12-20T17:50:55.735Z,100841.25
2022-12-20T17:52:59.737Z,100844.25
2022-12-20T17:55:01.671Z,100841.16
2022-12-20T17:57:03.784Z,100851.03
2022-12-20T17:59:07.303Z,100838.34
2022-12-20T18:01:26.119Z,100841.09
2022-12-20T18:04:02.239Z,100825.50
2022-12-20T18:05:51.245Z,100829.00
2022-12-20T18:07:57.271Z,100831.31
2022-12-20T18:09:59.605Z,100824.97
2022-12-20T18:12:01.687Z,100826.63
2022-12-20T18:14:03.881Z,100820.59
2022-12-20T18:16:07.295Z,100823.72
2022-12-20T18:18:09.514Z,100821.72
2022-12-20T18:20:12.456Z,100818.25
2022-12-20T18:22:17.844Z,100823.50
2022-12-20T18:24:22.133Z,100827.78
2022-12-20T18:26:32.388Z,100822.91
2022-12-20T18:28:37.393Z,100823.50
2022-12-20T18:30:40.516Z,100815.63
2022-12-20T18:32:45.767Z,100823.56
2022-12-20T18:34:50.000Z,100825.19
2022-12-20T18:36:52.416Z,100826.03
2022-12-20T18:38:55.525Z,100828.84
2022-12-20T18:41:04.113Z,100823.09
2022-12-20T18:43:06.642Z,100827.56
2022-12-20T18:45:11.647Z,100822.66
2022-12-20T18:47:13.952Z,100826.06
2022-12-20T18:49:17.138Z,100814.88
2022-12-20T18:51:22.787Z,100823.25
2022-12-20T18:53:25.009Z,100814.50
2022-12-20T18:55:27.070Z,100821.47
2022-12-20T18:57:29.219Z,100814.38
2022-12-20T18:59:31.507Z,100813.78
2022-12-20T19:01:35.248Z,100813.38
2022-12-20T19:03:37.424Z,100823.38
2022-12-20T19:05:39.605Z,100820.13
2022-12-20T19:07:42.755Z,100823.53
2022-12-20T19:09:45.345Z,100828.72
2022-12-20T19:11:56.669Z,100826.66
2022-12-20T19:14:00.440Z,100824.06
2022-12-20T19:16:13.584Z,100825.44
2022-12-20T19:18:16.687Z,100824.53
2022-12-20T19:20:21.598Z,100816.84
2022-12-20T19:22:25.528Z,100801.13
2022-12-20T19:24:27.616Z,100802.50
2022-12-20T19:26:33.981Z,100800.16
2022-12-20T19:28:36.955Z,100802.78
2022-12-20T19:30:40.535Z,100801.91
2022-12-20T19:32:43.328Z,100792.91
2022-12-20T19:34:46.025Z,100799.38
2022-12-20T19:36:48.738Z,100802.09
2022-12-20T19:38:56.009Z,100798.16
2022-12-20T19:41:00.511Z,100811.97
2022-12-20T19:43:02.521Z,100815.94
2022-12-20T19:45:04.884Z,100816.75
2022-12-20T19:47:08.205Z,100810.00
2022-12-20T19:49:12.127Z,100809.16
2022-12-20T19:51:16.237Z,100804.47
2022-12-20T19:53:26.370Z,100805.03
2022-12-20T19:55:28.676Z,100790.50
2022-12-20T19:57:30.590Z,100800.56
2022-12-20T19:59:33.708Z,100797.25
2022-12-20T20:01:36.133Z,100790.59
2022-12-20T20:03:39.101Z,100788.34
2022-12-20T20:05:41.940Z,100794.31
2022-12-20T20:07:44.172Z,100787.47
2022-12-20T20:09:46.285Z,100787.03
2022-12-20T20:11:49.242Z,100780.22
2022-12-20T20:13:54.736Z,100777.41
2022-12-20T20:16:01.044Z,100778.56
2022-12-20T20:18:03.142Z,100763.78
2022-12-20T20:20:08.936Z,100764.00
2022-12-20T20:22:11.184Z,100752.94
2022-12-20T20:24:13.611Z,100747.09
2022-12-20T20:26:19.466Z,100751.81
2022-12-20T20:28:26.521Z,100738.69
2022-12-20T20:30:31.694Z,100744.28
2022-12-20T20:32:34.133Z,100739.75
2022-12-20T20:34:38.624Z,100744.91
2022-12-20T20:36:44.211Z,100748.13
2022-12-20T20:38:46.551Z,100749.53
2022-12-20T20:40:48.808Z,100761.34
2022-12-20T20:43:04.037Z,100765.09
2022-12-20T20:45:06.737Z,100752.59
2022-12-20T20:47:10.851Z,100759.13
2022-12-20T20:49:14.241Z,100745.16
2022-12-20T20:51:21.373Z,100761.47
2022-12-20T20:53:27.974Z,100760.38
2022-12-20T20:55:36.003Z,100761.25
2022-12-20T20:57:38.106Z,100754.84
2022-12-20T20:59:40.161Z,100763.34
2022-12-20T21:01:42.603Z,100762.47
2022-12-20T21:03:45.870Z,100763.50
2022-12-20T21:06:22.286Z,100755.56
2022-12-20T21:08:10.458Z,100756.69
2022-12-20T21:10:13.863Z,100754.28
2022-12-20T21:12:17.125Z,100751.72
2022-12-20T21:14:36.495Z,100753.72
2022-12-20T21:16:42.540Z,100747.75
2022-12-20T21:18:44.782Z,100751.88
2022-12-20T21:20:46.794Z,100756.03
2022-12-20T21:22:48.647Z,100742.50
2022-12-20T21:24:51.699Z,100737.41
2022-12-20T21:26:59.262Z,100734.97
2022-12-20T21:29:08.522Z,100727.72
2022-12-20T21:31:15.008Z,100735.97
2022-12-20T21:33:24.018Z,100739.19
2022-12-20T21:35:27.426Z,100740.06
2022-12-20T21:37:32.874Z,100731.84
2022-12-20T21:39:38.124Z,100745.47
2022-12-20T21:41:41.151Z,100745.47
2022-12-20T21:43:43.730Z,100733.22
2022-12-20T21:45:53.387Z,100735.16
2022-12-20T21:48:01.174Z,100730.63
2022-12-20T21:50:08.263Z,100745.47
2022-12-20T21:52:11.197Z,100739.38
2022-12-20T21:54:13.348Z,100732.44
2022-12-20T21:56:20.056Z,100730.47
2022-12-20T22:00:46.032Z,100726.78
2022-12-20T22:02:50.473Z,100738.50
2022-12-20T22:04:55.817Z,100741.81
2022-12-20T22:07:01.617Z,100733.22
2022-12-20T22:09:15.629Z,100721.22
2022-12-20T22:11:26.765Z,100715.47
2022-12-20T22:13:41.074Z,100712.84
2022-12-20T22:15:43.724Z,100714.69
2022-12-20T22:17:51.381Z,100724.03
2022-12-20T22:20:03.740Z,100707.84
2022-12-20T22:22:11.263Z,100700.34
2022-12-20T22:24:13.356Z,100699.75
2022-12-20T22:26:20.390Z,100694.25
2022-12-20T22:28:22.442Z,100695.16
2022-12-20T22:30:24.722Z,100701.91
2022-12-20T22:32:26.678Z,100695.97
2022-12-20T22:34:35.865Z,100696.84
2022-12-20T22:36:37.860Z,100699.91
2022-12-20T22:38:45.888Z,100696.72
2022-12-20T22:40:47.833Z,100696.72
2022-12-20T22:42:56.301Z,100700.16
2022-12-20T22:45:04.991Z,100694.03
2022-12-20T22:49:26.575Z,100684.13
2022-12-20T22:51:33.590Z,100676.53
2022-12-20T22:53:36.951Z,100677.22
2022-12-20T22:55:39.078Z,100680.53
2022-12-20T22:57:41.027Z,100667.78
2022-12-20T22:59:44.848Z,100671.25
2022-12-20T23:01:47.947Z,100656.72
2022-12-20T23:03:50.670Z,100663.38
2022-12-20T23:05:59.078Z,100660.75
2022-12-20T23:08:02.037Z,100653.56
2022-12-20T23:10:04.106Z,100653.06
2022-12-20T23:12:25.055Z,100648.84
2022-12-20T23:14:46.708Z,100650.63
2022-12-20T23:16:49.247Z,100644.53
2022-12-20T23:18:55.589Z,100647.28
2022-12-20T23:21:15.990Z,100646.41
2022-12-20T23:23:17.835Z,100640.47
2022-12-20T23:25:21.196Z,100641.88
2022-12-20T23:27:23.242Z,100651.25
2022-12-20T23:29:25.249Z,100649.50
2022-12-20T23:31:28.719Z,100648.66
2022-12-20T23:33:31.621Z,100649.50
2022-12-20T23:35:33.635Z,100634.69
2022-12-20T23:37:35.583Z,100635.81
2022-12-20T23:39:38.633Z,100627.06
2022-12-20T23:41:41.596Z,100612.47
2022-12-20T23:43:43.761Z,100613.00
2022-12-20T23:45:51.633Z,100610.69
2022-12-20T23:47:53.581Z,100607.00
2022-12-20T23:49:55.615Z,100600.00
2022-12-20T23:51:57.514Z,100600.91
2022-12-20T23:53:59.368Z,100598.38
2022-12-20T23:56:16.014Z,100600.97
2022-12-20T23:58:17.851Z,100600.97
